Flight Track Log - Related Links

Times and Time Zones

All times are in EDT time to prevent confusion due to time zone crossing. See the N67LP flight status page for this flight to view local times or setup timezone preferences in your user account.

Time Position Orientation Groundspeed Altitude Reporting Facility
EDT Latitude Longitude Course Direction KTS MPH feet Rate Location/Type
Mon 10:16:41 AM 32.3575 -86.4583 135° Southeast 192 221 6,700  Level Atlanta Center
Mon 10:18:41 AM 32.2736 -86.3603 135° Southeast 204 235 11,800 2,433 Climbing Atlanta Center
Mon 10:19:41 AM 32.2308 -86.3100 135° Southeast 209 241 14,000 2,250 Climbing Atlanta Center
Mon 10:20:41 AM 32.1817 -86.2525 135° Southeast 219 252 16,300 1,900 Climbing Atlanta Center
Mon 10:21:41 AM 32.1450 -86.2047 132° Southeast 219 252 17,800 1,700 Climbing Atlanta Center
Mon 10:22:41 AM 32.0878 -86.1397 136° Southeast 240 276 19,700 1,493 Climbing Atlanta Center
Mon 10:25:10 AM 31.9739 -86.0078 135° Southeast 247 284 23,000 1,378 Climbing Jacksonville Center
Mon 10:26:10 AM 31.9272 -85.9522 135° Southeast 247 284 24,500 1,400 Climbing Jacksonville Center
Mon 10:27:10 AM 31.8783 -85.8969 136° Southeast 247 284 25,800 1,350 Climbing Jacksonville Center
Mon 10:28:10 AM 31.8275 -85.8364 135° Southeast 247 284 27,200 1,500 Climbing Jacksonville Center
Mon 10:29:10 AM 31.7808 -85.7814 135° Southeast 241 277 28,800 1,400 Climbing Jacksonville Center
Mon 10:30:10 AM 31.7319 -85.7261 136° Southeast 241 277 30,000 1,140 Climbing Jacksonville Center
Mon 10:31:11 AM 31.6850 -85.6708 135° Southeast 236 272 31,100 950 Climbing Jacksonville Center
Mon 10:32:10 AM 31.6364 -85.6133 135° Southeast 236 272 31,900 807 Climbing Jacksonville Center
Mon 10:33:10 AM 31.5811 -85.5531 137° Southeast 246 283 32,700 850 Climbing Jacksonville Center
Mon 10:34:10 AM 31.5303 -85.4908 134° Southeast 252 290 33,600 850 Climbing Jacksonville Center
Mon 10:35:10 AM 31.4753 -85.4258 135° Southeast 269 310 34,400 700 Climbing Jacksonville Center
Mon 10:36:10 AM 31.4200 -85.3611 135° Southeast 274 315 35,000 300 Climbing Jacksonville Center
Mon 10:37:10 AM 31.3589 -85.2914 136° Southeast 288 331 35,000  Level Jacksonville Center
Mon 10:38:10 AM 31.2875 -85.2044 134° Southeast 312 359 35,000  Level Jacksonville Center
Mon 10:39:10 AM 31.2197 -85.1300 137° Southeast 332 382 35,000  Level Jacksonville Center
Mon 10:40:10 AM 31.1481 -85.0531 137° Southeast 344 396 35,000  Level Jacksonville Center
Mon 10:41:10 AM 31.0786 -84.9689 134° Southeast 350 403 35,000  Level Jacksonville Center
Mon 10:42:10 AM 31.0089 -84.8850 134° Southeast 350 403 35,000  Level Jacksonville Center
Mon 10:43:10 AM 30.9350 -84.8058 137° Southeast 355 409 35,000  Level Jacksonville Center
Mon 10:44:10 AM 30.8608 -84.7244 137° Southeast 362 417 35,000  Level Jacksonville Center
Mon 10:45:11 AM 30.7933 -84.6411 133° Southeast 368 423 35,000  Level Jacksonville Center
Mon 10:46:10 AM 30.7169 -84.5600 138° Southeast 368 423 35,000  Level Jacksonville Center
Mon 10:47:10 AM 30.6450 -84.4742 134° Southeast 368 423 35,000  Level Jacksonville Center
Mon 10:48:10 AM 30.5983 -84.3647 116° Southeast 378 435 35,000  Level Jacksonville Center
Mon 10:49:10 AM 30.5536 -84.2506 114° Southeast 378 435 35,000  Level Jacksonville Center
Mon 10:50:10 AM 30.5214 -84.1489 110° East 378 435 35,000  Level Jacksonville Center
Mon 10:51:10 AM 30.4764 -84.0375 115° Southeast 378 435 35,000  Level Jacksonville Center
Mon 10:52:10 AM 30.4336 -83.9236 114° Southeast 383 441 35,000  Level Jacksonville Center
Mon 10:53:10 AM 30.3883 -83.8125 115° Southeast 378 435 35,000  Level Jacksonville Center
Mon 10:54:10 AM 30.3433 -83.6989 115° Southeast 378 435 35,000  Level Jacksonville Center
Mon 10:55:10 AM 30.3022 -83.5856 113° Southeast 378 435 35,000  Level Jacksonville Center
Mon 10:56:10 AM 30.2589 -83.4744 114° Southeast 378 435 35,000 450 Level Jacksonville Center
Mon 10:57:10 AM 30.2175 -83.3661 114° Southeast 378 435 35,900 500 Climbing Jacksonville Center
Mon 10:58:10 AM 30.1742 -83.2603 115° Southeast 366 421 36,000 50 Climbing Jacksonville Center
Mon 10:59:10 AM 30.1325 -83.1544 114° Southeast 360 414 36,000  Level Jacksonville Center
Mon 11:00:10 AM 30.0911 -83.0439 113° Southeast 365 420 36,000  Level Jacksonville Center
Mon 11:01:10 AM 30.0453 -82.9308 115° Southeast 375 432 36,000  Level Jacksonville Center
Mon 11:02:10 AM 29.9950 -82.8086 115° Southeast 380 437 36,000  Level Jacksonville Center
Mon 11:03:10 AM 29.9489 -82.6961 115° Southeast 385 443 36,000  Level Jacksonville Center
Mon 11:04:10 AM 29.9092 -82.5906 113° Southeast 384 442 36,000  Level Jacksonville Center
Mon 11:05:10 AM 29.8628 -82.4806 116° Southeast 384 442 36,000  Level Jacksonville Center
Mon 11:06:10 AM 29.8186 -82.3708 115° Southeast 379 436 36,000  Level Jacksonville Center
Mon 11:07:10 AM 29.7681 -82.2536 116° Southeast 374 430 36,000  Level Jacksonville Center
Mon 11:08:10 AM 29.7278 -82.1489 114° Southeast 379 436 36,000  Level Jacksonville Center
Mon 11:09:10 AM 29.6853 -82.0392 114° Southeast 379 436 36,000  Level Jacksonville Center
Mon 11:10:10 AM 29.6322 -81.9250 118° Southeast 373 429 36,000  Level Jacksonville Center
Mon 11:11:10 AM 29.5919 -81.8250 115° Southeast 373 429 36,000  Level Jacksonville Center
Mon 11:12:10 AM 29.5492 -81.7181 115° Southeast 373 429 36,000  Level Jacksonville Center
Mon 11:13:10 AM 29.5044 -81.6089 115° Southeast 373 429 36,000  Level Jacksonville Center
Mon 11:14:10 AM 29.4594 -81.5019 116° Southeast 378 435 36,000  Level Jacksonville Center
Mon 11:15:10 AM 29.4183 -81.3931 113° Southeast 378 435 36,000  Level Jacksonville Center
Mon 11:17:40 AM 29.2928 -81.1200 118° Southeast 377 434 36,000  Level Miami Center
Mon 11:18:41 AM 29.2117 -81.0503 143° Southeast 357 411 36,000  Level Miami Center
Mon 11:19:40 AM 29.1258 -80.9875 147° Southeast 357 411 36,000  Level Miami Center
Mon 11:20:41 AM 29.0400 -80.9297 150° Southeast 363 418 36,000  Level Miami Center
Mon 11:21:41 AM 28.9519 -80.8647 147° Southeast 363 418 36,000  Level Miami Center
Mon 11:22:40 AM 28.8725 -80.8028 146° Southeast 357 411 36,000  Level Miami Center
Mon 11:23:41 AM 28.7864 -80.7406 148° Southeast 357 411 36,000  Level Miami Center
Mon 11:24:40 AM 28.7108 -80.6858 148° Southeast 363 418 36,000  Level Miami Center
Mon 11:25:40 AM 28.6167 -80.6186 148° Southeast 358 412 36,000 -298 Level Miami Center
Mon 11:26:41 AM 28.5306 -80.5544 147° Southeast 358 412 35,400 -1,150 Descending Miami Center
Mon 11:27:40 AM 28.4383 -80.4947 150° Southeast 364 419 33,700 -1,815 Descending Miami Center
Mon 11:28:40 AM 28.3606 -80.4356 146° Southeast 373 429 31,800 -1,900 Descending Miami Center
Mon 11:29:40 AM 28.2744 -80.3714 147° Southeast 373 429 29,900 -2,083 Descending Miami Center
Mon 11:30:41 AM 28.1733 -80.3214 156° South 365 420 27,600 -2,150 Descending Miami Center
Mon 11:31:40 AM 28.0758 -80.2994 169° South 360 414 25,600 -2,050 Descending Miami Center
Mon 11:32:41 AM 27.9761 -80.2775 169° South 370 426 23,500 -2,132 Descending Miami Center
Mon 11:33:41 AM 27.8889 -80.2586 169° South 364 419 21,300 -2,168 Descending Miami Center
Mon 11:34:40 AM 27.7850 -80.2392 171° South 359 413 19,200 -1,966 Descending Miami Center
Mon 11:35:40 AM 27.7000 -80.2178 167° South 326 375 17,400 -1,800 Descending Miami Center
Mon 11:36:40 AM 27.6147 -80.2011 170° South 321 369 15,600 -1,800 Descending Miami Center
Mon 11:37:40 AM 27.5317 -80.1825 169° South 316 364 13,800 -1,650 Descending Miami Center
Mon 11:38:40 AM 27.4567 -80.1661 169° South 310 357 12,300 -1,488 Descending Miami Center
Mon 11:39:41 AM 27.3800 -80.1500 169° South 292 336 10,800 -1,150 Descending Miami Center
Mon 11:40:40 AM 27.2989 -80.1336 170° South 282 325 10,000 -400 Descending Miami Center
Mon 11:41:41 AM 27.2219 -80.1175 169° South 282 325 10,000 -450 Level Miami Center
Mon 11:42:40 AM 27.1517 -80.0828 156° South 276 318 9,100 -1,361 Descending Miami Center
Mon 11:43:40 AM 27.0897 -80.0506 155° Southeast 282 325 7,300 -1,550 Descending Miami Center
Mon 11:44:40 AM 27.0300 -80.0211 156° South 257 296 6,000 -1,150 Descending Miami Center
Mon 11:45:40 AM 26.9553 -80.0006 166° South 243 280 5,000 -500 Descending Miami Center
Mon 11:46:40 AM 26.9025 -80.0269 204° Southwest 217 250 5,000  Level Miami Center
Mon 11:47:41 AM 26.8533 -80.0700 218° Southwest 217 250 5,000  Level Miami Center
Mon 11:49:00 AM 26.7329 -80.0835 194° South  Level FlightAware Approximate
Mon 11:56:00 AM 26.3785 -80.1077 180° South  Level Estimated
Mon 11:57:00 AM 26.3785 -80.1077 180° South  Level Estimated
Mon 11:58:00 AM 26.3785 -80.1077 180° South  Level Estimated
Mon 11:59:00 AM 26.3785 -80.1077 180° South  Level Estimated
Mon 12:00:00 PM 26.3785 -80.1077 180° South  Level Estimated
Mon 12:01:00 PM 26.3785 -80.1077 180° South  Level Estimated
Mon 12:02:00 PM 26.3785 -80.1077 180° South  Level Estimated
Mon 12:03:00 PM 26.3785 -80.1077 180° South  Level Estimated
Mon 12:04:00 PM 26.3785 -80.1077 180° South  Level Estimated
Mon 12:05:00 PM 26.3785 -80.1077 180° South  Level Estimated
Mon 12:06:00 PM 26.3785 -80.1077 180° South  Level Estimated

Login

Don't have an account? Register now (free) for customized features, flight alerts, and more!